KMKT/MKT METAR and TAF weather

Enter ICAO airport designator
Station Type Date Time Source
KMKT METAR 2021/02/27 08:56 UTC NOAA

KMKT 270856Z AUTO 20006KT 10SM CLR M01/M02 A2974 RMK AO2 SLP083 T10111017 51007 FZRANO


Station Type Date Time Source
KMKT Decoded METAR 2021/02/27 08:56 UTC NOAA

Mankato, Mankato Regional Airport, MN, United States (KMKT) 44-13N 093-55W
Feb 27, 2021 - 03:56 AM EST / 2021.02.27 0856 UTC
Wind: from the SSW (200 degrees) at 7 MPH (6 KT):0
Visibility: 10 mile(s):0
Sky conditions: clear
Temperature: 30.0 F (-1.1 C)
Windchill: 23 F (-5 C):1
Dew Point: 28.9 F (-1.7 C)
Relative Humidity: 95%
Pressure (altimeter): 29.74 in. Hg (1007 hPa)
Pressure tendency: 0.02 inches (0.7 hPa) higher than three hours ago
ob: KMKT 270856Z AUTO 20006KT 10SM CLR M01/M02 A2974 RMK AO2 SLP083 T10111017 51007 FZRANO
cycle: 9

Station Type Date Time Source
KMKT TAF 2021/02/27 06:21 UTC NOAA

TAF KMKT 270520Z 2706/2806 20009KT P6SM SCT200
FM272000 16005KT P6SM BKN150
FM272300 07005KT P6SM BKN035
FM280100 08005KT P6SM BKN025
FM280300 08005KT 6SM -SN BR BKN015
FM280500 06008KT 2SM -SN BR BKN009

Example: see airport list